Time;durP1;ratioP1;P1;durP2;ratioP2;P2;SDS_P1;SDS_P2;PMS_P1;PMS_P2;Temp;Humidity;BMP_temperature;BMP_pressure;BME280_temperature;BME280_humidity;BME280_pressure;Samples;Min_cycle;Max_cycle;Signal;HPM_P1;HPM_P2
2022/06/10 00:01:26;;;;;;;8.10;4.00;;;;;17.08;96866.00;;;;108845;1267;41279;-66
2022/06/10 00:03:58;;;;;;;10.00;4.00;;;;;17.00;96868.80;;;;108947;1267;42345;-65
2022/06/10 00:06:28;;;;;;;11.40;4.60;;;;;17.00;96871.80;;;;108877;1266;41413;-66
2022/06/10 00:08:59;;;;;;;11.50;4.10;;;;;16.90;96868.80;;;;108733;1271;41184;-66
2022/06/10 00:11:30;;;;;;;12.80;4.20;;;;;16.90;96872.00;;;;108741;1268;41568;-67
2022/06/10 00:14:00;;;;;;;9.00;4.30;;;;;16.80;96873.20;;;;108756;1270;41679;-66
2022/06/10 00:16:31;;;;;;;8.00;3.80;;;;;16.80;96877.60;;;;108804;1267;41621;-66
2022/06/10 00:19:01;;;;;;;7.30;3.30;;;;;16.72;96879.80;;;;108923;1267;41157;-67
2022/06/10 00:21:31;;;;;;;9.70;3.40;;;;;16.70;96875.00;;;;108862;1267;41752;-66
2022/06/10 00:24:01;;;;;;;7.70;3.40;;;;;16.70;96873.20;;;;108827;1267;41879;-66
2022/06/10 00:26:32;;;;;;;8.20;2.90;;;;;16.60;96873.20;;;;108829;1269;41217;-65
2022/06/10 00:29:03;;;;;;;6.00;2.70;;;;;16.60;96873.20;;;;108905;1267;42445;-66
2022/06/10 00:31:33;;;;;;;6.10;2.70;;;;;16.60;96870.60;;;;109007;1266;41552;-65
2022/06/10 00:34:04;;;;;;;7.00;2.70;;;;;16.60;96873.40;;;;108838;1267;41778;-66
2022/06/10 00:36:35;;;;;;;8.20;3.00;;;;;16.60;96873.60;;;;108879;1267;41171;-66
2022/06/10 00:39:05;;;;;;;;;;;;;16.60;96868.20;;;;108899;1267;41282;-65
2022/06/10 00:41:34;;;;;;;7.00;2.70;;;;;16.50;96869.40;;;;108843;1267;41161;-66
2022/06/10 00:44:05;;;;;;;5.80;2.70;;;;;16.50;96877.80;;;;108987;1267;41295;-66
2022/06/10 00:46:36;;;;;;;8.00;2.70;;;;;16.50;96874.00;;;;108809;1267;41180;-68
2022/06/10 00:49:07;;;;;;;8.20;3.40;;;;;16.50;96867.60;;;;108860;1267;41194;-65
2022/06/10 00:51:47;;;;;;;9.00;3.40;;;;;16.50;96870.40;;;;108835;1267;41363;-65
2022/06/10 00:54:26;;;;;;;9.40;3.40;;;;;16.50;96869.60;;;;108791;1267;41364;-65
2022/06/10 00:57:19;;;;;;;8.40;3.40;;;;;16.58;96865.40;;;;108934;1268;41147;-64
2022/06/10 00:59:51;;;;;;;8.70;3.70;;;;;16.48;96867.80;;;;108948;1267;41275;-66
2022/06/10 01:02:25;;;;;;;8.40;3.20;;;;;16.40;96869.00;;;;108963;1267;41621;-65
2022/06/10 01:04:57;;;;;;;6.60;3.10;;;;;16.40;96865.40;;;;108927;1267;41665;-65
2022/06/10 01:07:32;;;;;;;8.80;3.40;;;;;16.40;96868.60;;;;108860;1267;41291;-67
2022/06/10 01:10:06;;;;;;;8.10;2.90;;;;;16.38;96870.40;;;;108792;1268;41193;-68
2022/06/10 01:12:53;;;;;;;6.60;2.90;;;;;16.30;96871.00;;;;108799;1267;41168;-67
2022/06/10 01:15:40;;;;;;;8.20;3.10;;;;;16.30;96874.60;;;;108869;1267;41186;-64
2022/06/10 01:18:32;;;;;;;7.00;3.20;;;;;16.30;96874.40;;;;109005;1267;41223;-65
2022/06/10 01:21:14;;;;;;;7.40;2.90;;;;;16.30;96873.80;;;;108846;1268;41291;-65
2022/06/10 01:23:53;;;;;;;7.90;2.60;;;;;16.20;96875.60;;;;108879;1267;41174;-65
2022/06/10 01:30:22;;;;;;;6.20;2.80;;;;;16.10;96879.60;;;;108788;1270;42710;-66
2022/06/10 01:33:02;;;;;;;8.40;2.60;;;;;16.00;96875.60;;;;108701;1267;41321;-67
2022/06/10 01:35:54;;;;;;;5.70;2.60;;;;;15.90;96871.80;;;;108734;1270;42034;-66
2022/06/10 01:38:57;;;;;;;6.30;2.80;;;;;15.90;96872.40;;;;108837;1267;41212;-67
2022/06/10 01:41:38;;;;;;;8.00;3.40;;;;;15.78;96878.60;;;;108820;1267;41611;-66
2022/06/10 01:44:09;;;;;;;;;;;;;15.70;96877.20;;;;108954;1267;41331;-66
2022/06/10 01:46:49;;;;;;;;;;;;;15.60;96878.80;;;;108942;1267;41633;-66
2022/06/10 01:49:29;;;;;;;9.00;3.80;;;;;15.50;96878.20;;;;108941;1267;41534;-65
2022/06/10 01:52:10;;;;;;;7.00;2.90;;;;;15.50;96878.40;;;;108697;1269;41170;-65
2022/06/10 01:55:00;;;;;;;7.10;3.30;;;;;15.50;96883.20;;;;108798;1268;41814;-66
2022/06/10 01:57:45;;;;;;;8.00;3.70;;;;;15.50;96876.20;;;;108878;1267;41274;-65
2022/06/10 02:00:25;;;;;;;6.20;2.90;;;;;15.50;96883.80;;;;108897;1267;42229;-65
2022/06/10 02:03:08;;;;;;;8.60;3.40;;;;;15.50;96885.20;;;;108835;1269;41164;-65
2022/06/10 02:05:46;;;;;;;10.80;3.00;;;;;15.50;96878.60;;;;108917;1267;41304;-65
2022/06/10 02:08:20;;;;;;;6.30;2.90;;;;;15.50;96881.40;;;;108865;1267;41175;-64
2022/06/10 02:11:02;;;;;;;6.10;2.60;;;;;15.50;96885.80;;;;108808;1267;41625;-65
2022/06/10 02:13:36;;;;;;;;;;;;;15.44;96893.00;;;;108843;1267;42501;-64
2022/06/10 02:16:11;;;;;;;10.30;2.70;;;;;15.40;96900.80;;;;108804;1267;41165;-65
2022/06/10 02:18:52;;;;;;;7.60;3.50;;;;;15.40;96912.20;;;;108832;1268;41703;-65
2022/06/10 02:21:30;;;;;;;6.40;2.90;;;;;15.40;96913.60;;;;108866;1268;41152;-66
2022/06/10 02:24:11;;;;;;;5.40;2.60;;;;;15.30;96915.60;;;;108976;1266;41293;-66
2022/06/10 02:26:43;;;;;;;7.30;3.00;;;;;15.30;96914.60;;;;108815;1269;41174;-66
2022/06/10 02:29:18;;;;;;;6.90;3.10;;;;;15.20;96919.80;;;;108852;1267;41637;-66
2022/06/10 02:31:56;;;;;;;7.30;3.30;;;;;15.20;96920.80;;;;108929;1268;41306;-66
2022/06/10 02:34:28;;;;;;;7.80;3.20;;;;;15.20;96920.00;;;;108742;1267;41272;-65
2022/06/10 02:37:05;;;;;;;7.70;2.90;;;;;15.20;96916.60;;;;108706;1267;41990;-66
2022/06/10 02:39:59;;;;;;;8.50;3.60;;;;;15.18;96922.40;;;;108806;1267;41178;-67
2022/06/10 02:42:55;;;;;;;8.10;3.10;;;;;15.10;96927.80;;;;108940;1267;42129;-67
2022/06/10 02:45:36;;;;;;;8.30;3.70;;;;;15.10;96933.00;;;;108791;1270;41311;-67
2022/06/10 02:48:14;;;;;;;7.40;3.20;;;;;15.16;96938.60;;;;108749;1270;41903;-67
2022/06/10 02:50:46;;;;;;;8.10;3.40;;;;;15.16;96941.00;;;;108829;1268;41216;-66
2022/06/10 02:53:17;;;;;;;7.30;3.20;;;;;15.10;96947.20;;;;108974;1268;41182;-66
2022/06/10 02:55:50;;;;;;;6.90;3.10;;;;;15.06;96943.80;;;;108971;1268;41630;-68
2022/06/10 03:01:34;;;;;;;10.70;3.80;;;;;15.10;96943.00;;;;108686;1267;41663;-65
2022/06/10 03:04:20;;;;;;;7.90;3.20;;;;;15.20;96942.20;;;;108959;1267;41288;-66
2022/06/10 03:07:07;;;;;;;7.10;3.20;;;;;15.20;96940.00;;;;108968;1268;42444;-65
2022/06/10 03:10:03;;;;;;;7.70;3.40;;;;;15.20;96951.20;;;;108773;1269;42271;-65
2022/06/10 03:12:37;;;;;;;8.60;3.70;;;;;15.30;96946.80;;;;108952;1270;41971;-66
2022/06/10 03:15:48;;;;;;;7.80;3.60;;;;;15.30;96951.20;;;;108918;1267;41712;-66
2022/06/10 03:18:51;;;;;;;7.20;3.30;;;;;15.30;96962.20;;;;108966;1268;41159;-65
2022/06/10 03:21:32;;;;;;;6.90;3.20;;;;;15.36;96965.20;;;;108879;1270;41282;-65
2022/06/10 03:24:12;;;;;;;7.90;3.40;;;;;15.40;96964.20;;;;108988;1267;41297;-65
2022/06/10 03:27:00;;;;;;;6.00;2.70;;;;;15.40;96962.00;;;;108772;1270;41329;-65
2022/06/10 03:29:50;;;;;;;7.30;3.20;;;;;15.40;96965.60;;;;108966;1268;41611;-67
2022/06/10 03:32:31;;;;;;;9.00;3.80;;;;;15.40;96961.40;;;;108990;1266;41169;-66
2022/06/10 03:35:23;;;;;;;7.40;3.40;;;;;15.40;96955.80;;;;108720;1270;41211;-67
2022/06/10 03:38:00;;;;;;;8.00;3.70;;;;;15.40;96966.00;;;;108792;1270;41211;-65
2022/06/10 03:40:34;;;;;;;7.60;3.40;;;;;15.28;96974.60;;;;108933;1267;41174;-65
2022/06/10 03:43:07;;;;;;;9.60;3.40;;;;;15.32;96973.80;;;;108788;1268;41203;-66
2022/06/10 03:45:46;;;;;;;8.50;4.00;;;;;15.40;96977.00;;;;108835;1267;41307;-66
2022/06/10 03:48:20;;;;;;;6.90;3.10;;;;;15.44;96974.00;;;;108878;1267;42260;-65
2022/06/10 03:50:50;;;;;;;6.10;3.00;;;;;15.50;96974.80;;;;108728;1267;42493;-64
2022/06/10 03:53:23;;;;;;;7.00;3.20;;;;;15.60;96971.20;;;;108667;1270;41184;-65
2022/06/10 03:55:53;;;;;;;9.30;2.70;;;;;15.62;96974.60;;;;108833;1267;41300;-66
2022/06/10 03:58:23;;;;;;;8.00;3.20;;;;;15.70;96974.40;;;;108764;1268;41295;-65
2022/06/10 04:00:54;;;;;;;7.50;3.50;;;;;15.70;96971.40;;;;108863;1267;41623;-65
2022/06/10 04:03:23;;;;;;;6.60;2.90;;;;;15.80;96967.20;;;;108892;1267;41194;-66
2022/06/10 04:05:56;;;;;;;9.60;4.40;;;;;15.80;96970.40;;;;108819;1267;41147;-65
2022/06/10 04:08:46;;;;;;;8.40;3.70;;;;;15.80;96978.40;;;;108948;1267;41705;-65
2022/06/10 04:11:15;;;;;;;10.80;3.30;;;;;15.80;96973.60;;;;108798;1268;41626;-65
2022/06/10 04:13:45;;;;;;;7.00;3.00;;;;;15.90;96975.20;;;;108811;1267;41153;-64
2022/06/10 04:16:15;;;;;;;8.50;3.20;;;;;16.00;96972.60;;;;108800;1267;42268;-65
2022/06/10 04:18:44;;;;;;;8.60;3.70;;;;;16.10;96979.80;;;;108863;1267;41169;-65
2022/06/10 04:21:14;;;;;;;8.90;3.50;;;;;16.20;96979.40;;;;108899;1267;41230;-65
2022/06/10 04:23:43;;;;;;;8.80;3.90;;;;;16.30;96986.80;;;;108918;1267;41195;-66
2022/06/10 04:26:13;;;;;;;9.60;3.70;;;;;16.36;96990.20;;;;108794;1267;41547;-65
2022/06/10 04:28:42;;;;;;;8.00;3.50;;;;;16.42;96987.40;;;;108865;1267;41176;-65
2022/06/10 04:31:12;;;;;;;8.50;3.10;;;;;16.50;96981.80;;;;108902;1267;41400;-66
2022/06/10 04:33:41;;;;;;;7.10;2.80;;;;;16.64;96989.40;;;;108855;1267;42804;-65
2022/06/10 04:36:14;;;;;;;7.20;3.50;;;;;16.76;96986.20;;;;108840;1267;41375;-66
2022/06/10 04:38:44;;;;;;;8.10;3.50;;;;;16.90;96993.60;;;;108850;1267;41169;-66
2022/06/10 04:41:14;;;;;;;11.50;4.30;;;;;16.90;96996.60;;;;108841;1267;41647;-66
2022/06/10 04:43:44;;;;;;;11.80;3.30;;;;;16.90;96990.40;;;;108807;1267;41193;-66
2022/06/10 04:46:25;;;;;;;7.50;2.90;;;;;17.00;96999.00;;;;108987;1267;41174;-65
2022/06/10 04:48:54;;;;;;;6.80;3.00;;;;;17.10;96991.60;;;;108919;1267;41279;-65
2022/06/10 04:51:24;;;;;;;8.10;3.40;;;;;17.28;96995.80;;;;108786;1268;41278;-66
2022/06/10 04:53:55;;;;;;;11.40;4.40;;;;;17.54;96995.20;;;;108994;1267;41183;-65
2022/06/10 04:56:24;;;;;;;8.60;3.50;;;;;17.70;96996.80;;;;108954;1266;41216;-65
2022/06/10 04:58:54;;;;;;;14.00;4.00;;;;;17.90;96997.20;;;;108793;1267;41628;-66
2022/06/10 05:01:25;;;;;;;11.80;3.60;;;;;18.42;96978.80;;;;108802;1267;41195;-66
2022/06/10 05:03:56;;;;;;;13.50;4.80;;;;;19.80;96967.20;;;;108800;1267;42064;-66
2022/06/10 05:06:25;;;;;;;15.00;5.20;;;;;21.06;96971.20;;;;108867;1267;41216;-66
2022/06/10 05:08:54;;;;;;;12.20;4.80;;;;;21.26;96979.00;;;;108932;1267;41180;-66
2022/06/10 05:11:24;;;;;;;10.20;4.00;;;;;21.66;96969.60;;;;108989;1267;40786;-65
2022/06/10 05:13:58;;;;;;;8.20;3.80;;;;;22.70;96964.00;;;;108952;1267;41235;-64
2022/06/10 05:16:35;;;;;;;7.40;3.30;;;;;24.12;96967.20;;;;108882;1267;41737;-64
2022/06/10 05:19:05;;;;;;;8.50;3.10;;;;;25.04;96968.20;;;;108839;1267;41177;-65
2022/06/10 05:21:34;;;;;;;7.30;3.00;;;;;25.14;96992.20;;;;108828;1267;41190;-65
2022/06/10 05:24:04;;;;;;;10.20;3.80;;;;;24.60;96997.60;;;;108729;1267;42415;-65
2022/06/10 05:26:34;;;;;;;6.70;3.00;;;;;23.78;97006.60;;;;108870;1267;42004;-65
2022/06/10 05:29:03;;;;;;;10.90;2.90;;;;;23.22;97011.60;;;;108923;1267;41172;-66
2022/06/10 05:31:33;;;;;;;6.60;2.20;;;;;22.76;97013.00;;;;108812;1268;41241;-64
2022/06/10 05:36:51;;;;;;;7.70;3.10;;;;;22.60;97014.20;;;;108878;1268;41173;-66
2022/06/10 05:39:21;;;;;;;8.70;3.10;;;;;22.50;97014.80;;;;108856;1267;41187;-66
2022/06/10 05:42:05;;;;;;;10.40;3.70;;;;;22.68;97014.80;;;;108942;1267;42003;-67
2022/06/10 05:44:47;;;;;;;13.30;3.90;;;;;22.60;97014.80;;;;108731;1267;41419;-65
2022/06/10 05:47:20;;;;;;;14.40;4.10;;;;;22.42;97014.60;;;;108913;1267;41154;-66
2022/06/10 05:49:53;;;;;;;11.30;3.50;;;;;22.40;97014.60;;;;108786;1267;41285;-66
2022/06/10 05:52:25;;;;;;;7.20;2.90;;;;;22.30;97012.20;;;;108824;1267;41296;-66
2022/06/10 05:54:57;;;;;;;10.50;3.10;;;;;23.00;96997.00;;;;108784;1267;41179;-65
2022/06/10 05:57:27;;;;;;;8.10;3.10;;;;;24.18;96986.80;;;;108860;1267;42261;-66
2022/06/10 05:59:57;;;;;;;8.30;2.90;;;;;25.16;96985.00;;;;108855;1267;41180;-67
2022/06/10 06:02:26;;;;;;;10.10;2.70;;;;;26.24;96991.60;;;;108822;1267;42551;-67
2022/06/10 06:04:58;;;;;;;6.80;2.90;;;;;27.20;96995.00;;;;108905;1267;41290;-66
2022/06/10 06:07:28;;;;;;;7.60;2.50;;;;;28.04;96990.40;;;;108814;1267;41280;-67
2022/06/10 06:09:57;;;;;;;;;;;;;28.70;96998.00;;;;108847;1267;41156;-66
2022/06/10 06:12:27;;;;;;;6.30;2.20;;;;;29.30;97000.20;;;;108824;1267;41903;-67
2022/06/10 06:14:57;;;;;;;6.30;2.00;;;;;29.54;96989.00;;;;108873;1267;42220;-66
2022/06/10 06:17:26;;;;;;;4.90;1.90;;;;;29.90;96987.60;;;;108962;1267;41175;-66
2022/06/10 06:19:55;;;;;;;7.50;2.10;;;;;30.54;96988.60;;;;108906;1267;41160;-66
2022/06/10 06:22:24;;;;;;;3.20;1.70;;;;;31.20;96991.20;;;;108919;1267;41290;-66
2022/06/10 06:24:54;;;;;;;4.10;1.70;;;;;31.70;96990.60;;;;108956;1267;41290;-66
2022/06/10 06:27:24;;;;;;;5.40;1.60;;;;;32.20;97000.20;;;;108955;1266;41267;-67
2022/06/10 06:29:53;;;;;;;4.30;1.80;;;;;32.30;97003.60;;;;108451;1267;608221;-66
2022/06/10 06:32:22;;;;;;;5.70;1.90;;;;;31.94;97005.20;;;;108921;1267;42030;-67
2022/06/10 06:34:51;;;;;;;4.30;1.70;;;;;31.42;97003.60;;;;108968;1267;41272;-67
2022/06/10 06:37:21;;;;;;;4.60;1.80;;;;;31.00;97008.00;;;;108865;1267;41723;-66
2022/06/10 06:39:50;;;;;;;3.30;1.60;;;;;30.70;97000.80;;;;108916;1267;41160;-66
2022/06/10 06:42:19;;;;;;;5.30;2.00;;;;;30.66;97006.60;;;;108750;1267;41912;-66
2022/06/10 06:44:57;;;;;;;4.40;1.80;;;;;30.50;97007.60;;;;108818;1267;41184;-65
2022/06/10 06:47:47;;;;;;;7.30;2.00;;;;;30.16;97010.80;;;;108745;1267;41164;-66
2022/06/10 06:50:19;;;;;;;5.70;1.70;;;;;29.68;97015.40;;;;108918;1267;42402;-67
2022/06/10 06:52:49;;;;;;;6.50;2.00;;;;;29.46;97021.20;;;;108938;1267;41173;-66
2022/06/10 06:55:20;;;;;;;;;;;;;29.30;97026.80;;;;108908;1267;41195;-66
2022/06/10 06:57:49;;;;;;;4.90;2.00;;;;;29.20;97030.60;;;;108776;1267;41679;-66
2022/06/10 07:00:20;;;;;;;8.30;2.20;;;;;28.92;97025.80;;;;108762;1267;41172;-66
2022/06/10 07:02:48;;;;;;;;;;;;;28.28;97032.00;;;;108856;1267;41534;-66
2022/06/10 07:05:18;;;;;;;6.90;2.50;;;;;27.74;97029.80;;;;108840;1267;41667;-66
2022/06/10 07:07:48;;;;;;;5.50;2.10;;;;;27.10;97033.00;;;;108751;1268;41161;-66
2022/06/10 07:10:18;;;;;;;6.60;2.20;;;;;26.88;97034.00;;;;108679;1267;41203;-66
2022/06/10 07:12:48;;;;;;;7.60;2.10;;;;;26.70;97033.00;;;;108836;1267;41276;-67
2022/06/10 07:15:18;;;;;;;5.20;2.00;;;;;26.70;97035.20;;;;108938;1267;41207;-67
2022/06/10 07:17:48;;;;;;;5.40;2.20;;;;;26.80;97030.60;;;;108640;1267;41386;-65
2022/06/10 07:20:27;;;;;;;5.80;2.00;;;;;26.90;97029.40;;;;108974;1267;41328;-66
2022/06/10 07:22:57;;;;;;;4.10;2.00;;;;;27.20;97032.80;;;;108772;1267;41788;-67
2022/06/10 07:25:28;;;;;;;3.60;1.80;;;;;27.40;97032.20;;;;108933;1267;41487;-67
2022/06/10 07:27:57;;;;;;;;;;;;;27.40;97031.20;;;;108988;1267;42197;-68
2022/06/10 07:30:29;;;;;;;3.10;1.70;;;;;27.60;97030.20;;;;108949;1267;41646;-66
2022/06/10 07:32:58;;;;;;;4.30;1.80;;;;;27.90;97029.80;;;;108815;1267;41182;-66
2022/06/10 07:35:28;;;;;;;5.60;1.90;;;;;28.20;97030.00;;;;109001;1267;41171;-65
2022/06/10 07:37:58;;;;;;;5.60;1.80;;;;;28.40;97032.00;;;;108917;1267;41300;-66
2022/06/10 07:43:42;;;;;;;3.80;1.80;;;;;28.64;97030.20;;;;108916;1267;41905;-67
2022/06/10 07:46:13;;;;;;;;;;;;;28.54;97032.00;;;;109030;1267;41739;-67
2022/06/10 07:48:43;;;;;;;4.60;1.80;;;;;28.22;97036.80;;;;108935;1267;42132;-68
2022/06/10 07:51:12;;;;;;;6.50;1.90;;;;;27.80;97036.00;;;;108861;1267;41410;-67
2022/06/10 07:53:42;;;;;;;8.70;1.90;;;;;27.70;97040.40;;;;108816;1268;41181;-67
2022/06/10 07:56:16;;;;;;;;;;;;;27.50;97042.00;;;;108836;1268;41949;-67
2022/06/10 07:58:45;;;;;;;5.90;1.90;;;;;27.54;97042.80;;;;108831;1267;41173;-68
2022/06/10 08:01:14;;;;;;;5.50;2.10;;;;;27.50;97045.20;;;;108859;1267;41143;-67
2022/06/10 08:03:49;;;;;;;6.30;1.60;;;;;27.60;97044.60;;;;108914;1267;41842;-67
2022/06/10 08:06:20;;;;;;;6.20;1.70;;;;;27.90;97043.40;;;;108832;1267;41283;-69
2022/06/10 08:08:50;;;;;;;3.50;1.80;;;;;28.16;97046.80;;;;108831;1267;41744;-66
2022/06/10 08:11:20;;;;;;;2.00;1.50;;;;;28.50;97046.60;;;;109001;1267;41165;-66
2022/06/10 08:13:49;;;;;;;4.40;1.70;;;;;28.12;97044.60;;;;108873;1267;41658;-67
2022/06/10 08:16:19;;;;;;;4.00;1.60;;;;;27.98;97043.60;;;;108901;1267;42235;-67
2022/06/10 08:18:48;;;;;;;4.80;1.80;;;;;28.04;97043.40;;;;108925;1267;40876;-68
2022/06/10 08:24:06;;;;;;;4.10;1.70;;;;;28.30;97049.20;;;;108943;1267;41751;-68
2022/06/10 08:26:36;;;;;;;6.50;1.80;;;;;28.36;97049.20;;;;109136;1267;41922;-68
2022/06/10 08:29:05;;;;;;;3.20;1.70;;;;;28.18;97052.60;;;;109111;1268;41638;-67
2022/06/10 08:31:34;;;;;;;4.00;1.70;;;;;28.10;97052.20;;;;108871;1267;41288;-70
2022/06/10 08:34:04;;;;;;;3.50;1.60;;;;;27.94;97063.60;;;;108985;1267;41652;-66
2022/06/10 08:36:34;;;;;;;5.30;1.80;;;;;27.52;97070.40;;;;108929;1267;41287;-67
2022/06/10 08:39:04;;;;;;;5.10;1.70;;;;;27.18;97071.20;;;;108805;1270;41263;-67
2022/06/10 08:41:46;;;;;;;3.70;1.50;;;;;27.32;97073.00;;;;108889;1267;41159;-65
2022/06/10 08:44:21;;;;;;;5.50;1.90;;;;;26.88;97075.20;;;;108868;1267;41642;-66
2022/06/10 08:47:11;;;;;;;6.40;2.00;;;;;26.48;97085.20;;;;108837;1266;41406;-68
2022/06/10 08:50:19;;;;;;;4.70;1.70;;;;;26.86;97082.20;;;;108820;1267;41360;-68
2022/06/10 08:53:26;;;;;;;3.60;1.70;;;;;26.82;97084.60;;;;108905;1267;42581;-67
2022/06/10 08:56:03;;;;;;;5.00;1.70;;;;;26.42;97084.60;;;;109070;1267;41175;-67
2022/06/10 08:58:50;;;;;;;5.00;1.70;;;;;26.18;97081.40;;;;109172;1266;41176;-67
2022/06/10 09:01:22;;;;;;;7.60;1.70;;;;;26.46;97083.60;;;;109010;1267;41269;-68
2022/06/10 09:04:17;;;;;;;3.40;1.70;;;;;26.26;97087.60;;;;108979;1267;41277;-67
2022/06/10 09:06:51;;;;;;;3.10;1.70;;;;;26.68;97090.80;;;;108868;1268;41890;-67
2022/06/10 09:09:23;;;;;;;10.40;2.30;;;;;26.60;97092.00;;;;108850;1266;41616;-68
2022/06/10 09:11:59;;;;;;;3.80;1.70;;;;;26.86;97095.60;;;;108903;1267;42620;-69
2022/06/10 09:14:29;;;;;;;4.10;1.80;;;;;26.80;97099.60;;;;108800;1268;42222;-67
2022/06/10 09:17:04;;;;;;;3.40;1.80;;;;;26.98;97102.40;;;;109153;1267;41282;-68
2022/06/10 09:19:47;;;;;;;3.20;1.70;;;;;26.82;97104.40;;;;108823;1267;41491;-67
2022/06/10 09:22:26;;;;;;;2.70;1.60;;;;;27.14;97103.60;;;;108936;1267;41201;-67
2022/06/10 09:25:10;;;;;;;6.30;1.90;;;;;26.96;97105.00;;;;108909;1267;41399;-66
2022/06/10 09:27:44;;;;;;;3.20;1.60;;;;;27.24;97105.60;;;;109009;1265;41777;-66
2022/06/10 09:30:16;;;;;;;5.30;1.90;;;;;27.10;97100.00;;;;108992;1268;41711;-67
2022/06/10 09:32:56;;;;;;;6.20;2.30;;;;;27.10;97109.20;;;;108863;1267;42165;-67
2022/06/10 09:35:42;;;;;;;3.90;1.50;;;;;26.80;97114.20;;;;108889;1267;41168;-65
2022/06/10 09:38:23;;;;;;;3.90;1.80;;;;;26.52;97118.00;;;;109010;1266;41502;-66
2022/06/10 09:41:02;;;;;;;2.80;1.70;;;;;26.50;97125.40;;;;108984;1267;41303;-66
2022/06/10 09:43:50;;;;;;;6.50;1.90;;;;;26.50;97131.40;;;;109303;1267;41162;-66
2022/06/10 09:46:42;;;;;;;4.50;1.60;;;;;26.32;97133.40;;;;109158;1267;42339;-69
2022/06/10 09:49:35;;;;;;;4.80;1.80;;;;;26.20;97140.80;;;;108961;1265;41895;-67
2022/06/10 09:52:39;;;;;;;4.10;1.90;;;;;26.10;97142.20;;;;108806;1267;41969;-67
2022/06/10 09:55:49;;;;;;;3.40;1.70;;;;;25.96;97143.20;;;;108741;1267;41183;-67
2022/06/10 09:58:24;;;;;;;5.60;2.00;;;;;25.76;97150.00;;;;108876;1267;41165;-66
2022/06/10 10:01:03;;;;;;;7.00;2.00;;;;;25.76;97151.60;;;;109045;1267;41931;-67
2022/06/10 10:04:00;;;;;;;7.60;2.00;;;;;25.80;97154.60;;;;108956;1267;41179;-68
2022/06/10 10:06:38;;;;;;;4.90;1.90;;;;;25.82;97156.20;;;;108941;1267;41222;-66
2022/06/10 10:09:11;;;;;;;4.20;1.90;;;;;25.74;97150.40;;;;108740;1268;41175;-67
2022/06/10 10:11:45;;;;;;;2.90;1.60;;;;;26.00;97150.40;;;;108913;1267;41333;-67
2022/06/10 10:14:35;;;;;;;4.10;1.80;;;;;25.68;97151.20;;;;108819;1267;41963;-68
2022/06/10 10:17:25;;;;;;;5.10;2.00;;;;;25.78;97147.20;;;;108861;1267;41500;-67
2022/06/10 10:20:17;;;;;;;;;;;;;25.62;97140.20;;;;108844;1267;41177;-68
2022/06/10 10:23:11;;;;;;;3.80;1.60;;;;;25.96;97144.40;;;;108784;1267;41186;-66
2022/06/10 10:25:42;;;;;;;3.10;1.60;;;;;26.22;97142.80;;;;108821;1267;41166;-66
2022/06/10 10:28:26;;;;;;;4.00;1.70;;;;;26.34;97135.20;;;;108871;1267;41153;-68
2022/06/10 10:31:18;;;;;;;5.70;1.80;;;;;26.44;97144.00;;;;108886;1267;41756;-66
2022/06/10 10:33:47;;;;;;;3.00;1.60;;;;;26.64;97144.40;;;;108956;1267;41345;-67
2022/06/10 10:36:48;;;;;;;2.60;1.50;;;;;26.86;97136.20;;;;108871;1267;41655;-66
2022/06/10 10:39:29;;;;;;;5.10;1.90;;;;;26.90;97138.40;;;;108910;1267;41188;-67
2022/06/10 10:42:13;;;;;;;3.50;1.60;;;;;27.46;97135.00;;;;108861;1267;41629;-68
2022/06/10 10:44:49;;;;;;;3.30;1.50;;;;;27.56;97140.60;;;;108695;1268;41294;-66
2022/06/10 10:47:22;;;;;;;3.40;1.50;;;;;26.98;97132.40;;;;109011;1267;42535;-68
2022/06/10 10:50:06;;;;;;;3.30;1.60;;;;;27.18;97128.80;;;;108897;1267;41172;-66
2022/06/10 10:52:35;;;;;;;3.90;1.60;;;;;27.18;97124.00;;;;108829;1268;41285;-68
2022/06/10 10:55:13;;;;;;;5.80;1.90;;;;;27.06;97118.80;;;;108845;1267;41839;-67
2022/06/10 10:57:57;;;;;;;3.80;1.60;;;;;27.32;97109.80;;;;108915;1267;42569;-67
2022/06/10 11:00:31;;;;;;;4.50;1.80;;;;;27.44;97109.20;;;;108958;1267;41692;-67
2022/06/10 11:03:01;;;;;;;5.90;1.60;;;;;27.36;97110.80;;;;108915;1267;41287;-67
2022/06/10 11:05:36;;;;;;;4.10;1.80;;;;;28.16;97110.60;;;;108975;1267;41404;-67
2022/06/10 11:08:25;;;;;;;3.40;1.60;;;;;27.84;97110.20;;;;108885;1266;42415;-67
2022/06/10 11:11:12;;;;;;;2.60;1.60;;;;;28.48;97102.60;;;;108787;1267;41750;-67
2022/06/10 11:13:47;;;;;;;3.60;1.80;;;;;28.74;97095.00;;;;108861;1267;41404;-67
2022/06/10 11:16:32;;;;;;;7.00;1.90;;;;;29.78;97094.80;;;;108956;1267;41275;-68
2022/06/10 11:19:37;;;;;;;4.30;1.60;;;;;29.88;97092.80;;;;108896;1267;42099;-67
2022/06/10 11:22:20;;;;;;;4.60;1.60;;;;;29.70;97095.80;;;;108842;1267;41313;-67
2022/06/10 11:24:56;;;;;;;5.90;1.90;;;;;29.60;97092.40;;;;109054;1267;41150;-66
2022/06/10 11:27:37;;;;;;;3.50;1.50;;;;;29.36;97095.80;;;;108955;1266;41821;-66
2022/06/10 11:30:10;;;;;;;5.10;1.80;;;;;29.50;97095.00;;;;108813;1268;41649;-67
2022/06/10 11:32:39;;;;;;;3.70;1.60;;;;;28.46;97098.80;;;;108891;1267;42168;-67
2022/06/10 11:35:24;;;;;;;3.80;1.70;;;;;28.46;97099.00;;;;108901;1267;41390;-66
2022/06/10 11:38:20;;;;;;;4.20;1.60;;;;;28.34;97096.20;;;;108933;1267;41741;-66
2022/06/10 11:40:52;;;;;;;3.50;1.70;;;;;28.80;97095.80;;;;108732;1268;41652;-66
2022/06/10 11:43:31;;;;;;;7.90;1.90;;;;;28.50;97095.40;;;;108978;1267;41764;-66
2022/06/10 11:46:17;;;;;;;4.60;1.90;;;;;28.50;97097.80;;;;108969;1267;41174;-67
2022/06/10 11:48:51;;;;;;;3.60;1.70;;;;;27.46;97105.40;;;;109007;1267;41177;-67
2022/06/10 11:51:33;;;;;;;4.50;1.80;;;;;27.54;97101.40;;;;109105;1267;41155;-66
2022/06/10 11:54:12;;;;;;;3.20;1.70;;;;;27.12;97097.00;;;;108901;1266;41172;-68
2022/06/10 12:00:08;;;;;;;4.90;1.90;;;;;27.74;97094.80;;;;108805;1267;41218;-67
2022/06/10 12:02:57;;;;;;;4.70;1.60;;;;;27.58;97096.20;;;;108886;1267;41426;-67
2022/06/10 12:05:38;;;;;;;5.00;1.70;;;;;27.40;97098.80;;;;108833;1267;42407;-68
2022/06/10 12:08:41;;;;;;;3.50;1.60;;;;;27.50;97097.00;;;;108831;1267;41225;-66
2022/06/10 12:11:10;;;;;;;3.40;1.60;;;;;27.44;97096.80;;;;108796;1267;41372;-67
2022/06/10 12:13:55;;;;;;;6.30;1.70;;;;;27.40;97099.00;;;;108815;1267;41169;-69
2022/06/10 12:16:30;;;;;;;3.90;1.70;;;;;27.30;97097.40;;;;108843;1268;41187;-68
2022/06/10 12:19:06;;;;;;;3.70;1.80;;;;;26.98;97101.20;;;;108817;1267;41177;-68
2022/06/10 12:21:35;;;;;;;5.00;1.90;;;;;26.74;97097.40;;;;108833;1268;41655;-67
2022/06/10 12:24:13;;;;;;;4.10;1.90;;;;;26.34;97097.40;;;;108878;1267;41397;-68
2022/06/10 12:26:51;;;;;;;5.80;2.10;;;;;26.42;97103.60;;;;108942;1267;41275;-67
2022/06/10 12:29:35;;;;;;;4.90;1.90;;;;;26.70;97102.60;;;;109131;1267;41843;-68
2022/06/10 12:32:18;;;;;;;4.60;1.90;;;;;26.96;97099.00;;;;108788;1268;41323;-68
2022/06/10 12:34:50;;;;;;;5.10;1.90;;;;;26.74;97101.80;;;;108991;1267;41169;-68
2022/06/10 12:37:49;;;;;;;6.30;2.10;;;;;26.64;97097.80;;;;108859;1267;41174;-67
2022/06/10 12:40:27;;;;;;;6.10;2.20;;;;;27.24;97096.40;;;;108860;1267;42159;-68
2022/06/10 12:43:06;;;;;;;6.50;2.10;;;;;27.42;97095.40;;;;109026;1267;41846;-69
2022/06/10 12:45:37;;;;;;;4.60;2.20;;;;;27.68;97101.60;;;;108886;1267;41168;-68
2022/06/10 12:48:17;;;;;;;5.70;2.20;;;;;27.42;97103.80;;;;108869;1267;41807;-66
2022/06/10 12:50:55;;;;;;;5.40;2.20;;;;;27.78;97101.80;;;;108884;1270;41170;-68
2022/06/10 12:53:35;;;;;;;6.60;2.30;;;;;27.92;97100.60;;;;108876;1267;41182;-67
2022/06/10 12:56:23;;;;;;;5.30;2.20;;;;;27.84;97096.20;;;;108798;1270;41289;-67
2022/06/10 12:59:05;;;;;;;5.80;2.10;;;;;27.70;97095.40;;;;108818;1269;41290;-67
2022/06/10 13:01:34;;;;;;;4.60;2.10;;;;;27.24;97098.40;;;;108901;1268;41279;-68
2022/06/10 13:04:07;;;;;;;5.60;2.20;;;;;27.14;97096.60;;;;108985;1267;42796;-67
2022/06/10 13:06:43;;;;;;;6.30;2.20;;;;;27.20;97093.40;;;;108808;1267;41181;-67
2022/06/10 13:09:12;;;;;;;6.30;2.20;;;;;27.66;97096.00;;;;108792;1267;42392;-67
2022/06/10 13:11:46;;;;;;;4.50;2.00;;;;;27.86;97091.20;;;;108819;1266;41693;-67
2022/06/10 13:14:30;;;;;;;6.00;2.00;;;;;28.20;97089.60;;;;108984;1267;41955;-67
2022/06/10 13:16:59;;;;;;;9.80;3.00;;;;;28.40;97094.00;;;;108806;1267;41181;-69